Time;durP1;ratioP1;P1;durP2;ratioP2;P2;SDS_P1;SDS_P2;PMS_P1;PMS_P2;Temp;Humidity;BMP_temperature;BMP_pressure;BME280_temperature;BME280_humidity;BME280_pressure;Samples;Min_cycle;Max_cycle;Signal;HPM_P1;HPM_P2
2022/01/30 00:00:41;;;;;;;31.42;7.78;;;5.80;99.90;;;;;;5060298;28;20112;-53
2022/01/30 00:03:07;;;;;;;32.40;9.02;;;5.70;99.90;;;;;;5061185;28;20029;-55
2022/01/30 00:05:34;;;;;;;40.33;8.55;;;5.70;99.90;;;;;;5059450;28;20154;-54
2022/01/30 00:08:00;;;;;;;38.00;8.15;;;5.60;99.90;;;;;;5060310;28;20034;-52
2022/01/30 00:10:26;;;;;;;34.30;8.82;;;5.60;99.90;;;;;;5060522;28;20032;-56
2022/01/30 00:12:56;;;;;;;29.48;6.43;;;5.60;99.90;;;;;;5058782;28;20028;-55
2022/01/30 00:15:35;;;;;;;25.95;6.97;;;5.60;99.90;;;;;;5060406;28;20032;-56
2022/01/30 00:20:41;;;;;;;29.23;6.20;;;5.70;99.90;;;;;;5060449;28;20040;-52
2022/01/30 00:23:13;;;;;;;20.77;5.20;;;5.60;99.90;;;;;;5060235;28;20027;-51
2022/01/30 00:25:49;;;;;;;22.63;6.32;;;5.70;99.90;;;;;;5058596;28;20124;-52
2022/01/30 00:28:17;;;;;;;;;;;5.70;99.90;;;;;;5059634;28;20098;-50
2022/01/30 00:30:43;;;;;;;16.20;4.32;;;5.60;99.90;;;;;;5058821;28;19934;-52
2022/01/30 00:33:08;;;;;;;15.15;3.38;;;5.60;99.90;;;;;;5059979;28;20025;-54
2022/01/30 00:35:35;;;;;;;13.35;3.47;;;5.50;99.90;;;;;;5059320;28;20127;-53
2022/01/30 00:38:02;;;;;;;19.27;4.63;;;5.40;99.90;;;;;;5058245;28;20384;-50
2022/01/30 00:40:27;;;;;;;18.67;4.50;;;5.20;99.90;;;;;;5057647;28;20404;-52
2022/01/30 00:42:53;;;;;;;16.08;4.88;;;5.20;99.90;;;;;;5056865;28;20196;-52
2022/01/30 00:45:19;;;;;;;9.15;3.70;;;5.10;99.90;;;;;;5059703;28;20104;-57
2022/01/30 00:47:45;;;;;;;12.57;3.33;;;5.10;99.90;;;;;;5059504;28;20021;-54
2022/01/30 00:50:11;;;;;;;13.38;3.88;;;5.10;99.90;;;;;;5058420;28;20034;-55
2022/01/30 00:52:37;;;;;;;13.82;3.90;;;5.10;99.90;;;;;;5058986;28;20055;-55
2022/01/30 00:55:03;;;;;;;12.10;3.22;;;5.10;99.90;;;;;;5059649;28;20067;-52
2022/01/30 00:57:29;;;;;;;14.15;4.13;;;5.10;99.90;;;;;;5059231;28;20698;-55
2022/01/30 00:59:55;;;;;;;19.10;4.90;;;5.10;99.90;;;;;;5059469;28;20108;-57
2022/01/30 01:02:20;;;;;;;23.05;6.03;;;5.10;99.90;;;;;;5058372;28;20492;-52
2022/01/30 01:04:46;;;;;;;18.67;4.43;;;5.10;99.90;;;;;;5057991;28;20066;-51
2022/01/30 01:07:23;;;;;;;24.90;5.53;;;5.20;99.90;;;;;;5059402;28;20503;-49
2022/01/30 01:10:00;;;;;;;23.95;4.80;;;5.20;99.90;;;;;;5059733;28;20024;-51
2022/01/30 01:12:54;;;;;;;19.40;4.75;;;5.30;99.90;;;;;;5058540;28;20024;-54
2022/01/30 01:25:55;;;;;;;21.38;4.82;;;5.50;99.90;;;;;;5055290;28;20070;-57
2022/01/30 01:28:22;;;;;;;24.30;6.15;;;5.50;99.90;;;;;;5059558;28;20029;-54
2022/01/30 01:30:47;;;;;;;21.52;4.97;;;5.40;99.90;;;;;;5057587;28;20033;-57
2022/01/30 01:33:14;;;;;;;31.63;5.82;;;5.40;99.90;;;;;;5058803;28;20104;-56
2022/01/30 01:35:39;;;;;;;28.50;5.25;;;5.40;99.90;;;;;;5058469;28;20024;-53
2022/01/30 01:38:10;;;;;;;24.70;5.40;;;5.40;99.90;;;;;;5058825;28;20040;-53
2022/01/30 01:40:36;;;;;;;23.67;5.90;;;5.40;99.90;;;;;;5058514;28;20083;-56
2022/01/30 01:43:02;;;;;;;20.00;6.03;;;5.40;99.90;;;;;;5056466;28;20423;-56
2022/01/30 01:45:34;;;;;;;26.13;5.88;;;5.40;99.90;;;;;;5058444;28;20029;-51
2022/01/30 01:48:03;;;;;;;21.70;5.65;;;5.40;99.90;;;;;;5057673;28;20020;-55
2022/01/30 01:50:43;;;;;;;17.65;4.80;;;5.50;99.90;;;;;;5057442;28;20404;-56
2022/01/30 01:53:11;;;;;;;21.08;4.90;;;5.50;99.90;;;;;;5058000;28;20067;-54
2022/01/30 01:55:37;;;;;;;18.17;4.53;;;5.40;99.90;;;;;;5058446;28;20028;-52
2022/01/30 01:58:04;;;;;;;13.40;4.28;;;5.40;99.90;;;;;;5057284;28;20115;-55
2022/01/30 02:00:31;;;;;;;17.45;4.40;;;5.40;99.90;;;;;;5055889;28;20032;-50
2022/01/30 02:02:57;;;;;;;21.90;4.35;;;5.40;99.90;;;;;;5056288;28;20445;-55
2022/01/30 02:05:25;;;;;;;21.88;4.95;;;5.40;99.90;;;;;;5055415;28;20024;-56
2022/01/30 02:10:37;;;;;;;22.80;5.53;;;5.40;99.90;;;;;;5058008;28;20032;-52
2022/01/30 02:13:33;;;;;;;24.30;5.72;;;5.50;99.90;;;;;;5058267;28;20021;-54
2022/01/30 02:26:48;;;;;;;25.55;5.30;;;5.30;99.90;;;;;;5057559;28;20048;-52
2022/01/30 02:29:14;;;;;;;24.95;4.80;;;5.30;99.90;;;;;;5058946;28;20024;-53
2022/01/30 02:31:41;;;;;;;30.55;6.45;;;5.40;99.90;;;;;;5063021;28;20017;-56
2022/01/30 02:34:08;;;;;;;18.80;5.60;;;5.30;99.90;;;;;;5062261;28;20020;-54
2022/01/30 02:36:47;;;;;;;22.30;4.60;;;5.20;99.90;;;;;;5062701;28;20035;-57
2022/01/30 02:39:13;;;;;;;26.27;6.45;;;5.20;99.90;;;;;;5061490;28;20057;-52
2022/01/30 02:41:39;;;;;;;30.92;5.60;;;5.10;99.90;;;;;;5062787;28;20022;-53
2022/01/30 02:44:12;;;;;;;22.58;5.13;;;5.10;99.90;;;;;;5062096;28;20101;-51
2022/01/30 02:46:43;;;;;;;28.02;6.07;;;5.10;99.90;;;;;;5061161;28;20044;-51
2022/01/30 02:52:05;;;;;;;30.45;6.30;;;5.10;99.90;;;;;;5061350;28;20024;-54
2022/01/30 02:54:32;;;;;;;25.25;6.20;;;5.10;99.90;;;;;;5062376;28;20158;-51
2022/01/30 02:56:58;;;;;;;25.77;5.55;;;5.10;99.90;;;;;;5061804;28;20025;-52
2022/01/30 02:59:24;;;;;;;19.73;5.10;;;5.10;99.90;;;;;;5061554;28;20060;-54
2022/01/30 03:01:50;;;;;;;24.17;6.13;;;5.10;99.90;;;;;;5061750;28;20029;-55
2022/01/30 03:04:17;;;;;;;24.42;6.78;;;5.20;99.90;;;;;;5061600;28;20544;-54
2022/01/30 03:06:44;;;;;;;29.65;6.47;;;5.20;99.90;;;;;;5062800;28;20031;-55
2022/01/30 03:09:10;;;;;;;24.38;5.32;;;5.30;99.90;;;;;;5061703;28;20040;-54
2022/01/30 03:11:36;;;;;;;30.38;6.32;;;5.30;99.90;;;;;;5060220;28;20032;-54
2022/01/30 03:14:03;;;;;;;23.67;6.13;;;5.40;99.90;;;;;;5061574;28;20031;-52
2022/01/30 03:16:29;;;;;;;23.05;6.07;;;5.40;99.90;;;;;;5061818;28;20036;-56
2022/01/30 03:18:55;;;;;;;26.80;6.53;;;5.40;99.90;;;;;;5062286;28;20069;-55
2022/01/30 03:21:20;;;;;;;18.75;5.00;;;5.50;99.90;;;;;;5060503;28;20028;-53
2022/01/30 03:23:47;;;;;;;17.40;5.13;;;5.40;99.90;;;;;;5060666;28;20043;-52
2022/01/30 03:26:14;;;;;;;20.13;5.03;;;5.40;99.90;;;;;;5061263;28;20145;-54
2022/01/30 03:28:42;;;;;;;19.52;5.15;;;5.30;99.90;;;;;;5061585;28;20024;-56
2022/01/30 03:31:09;;;;;;;24.38;6.20;;;5.30;99.90;;;;;;5061753;28;20029;-54
2022/01/30 03:33:35;;;;;;;23.30;5.80;;;5.40;99.90;;;;;;5060319;28;20032;-53
2022/01/30 03:36:01;;;;;;;28.90;5.88;;;5.40;99.90;;;;;;5061731;28;20028;-55
2022/01/30 03:38:27;;;;;;;19.42;5.35;;;5.40;99.90;;;;;;5061069;28;20032;-53
2022/01/30 03:40:53;;;;;;;21.05;6.00;;;5.40;99.90;;;;;;5059615;28;20028;-56
2022/01/30 03:43:19;;;;;;;20.77;6.30;;;5.40;99.90;;;;;;5060539;28;20033;-56
2022/01/30 03:45:46;;;;;;;32.08;7.45;;;5.50;99.90;;;;;;5060939;28;20023;-54
2022/01/30 03:48:13;;;;;;;29.02;5.82;;;5.50;99.90;;;;;;5061288;28;20021;-56
2022/01/30 03:50:39;;;;;;;22.92;6.28;;;5.50;99.90;;;;;;5060702;28;20035;-55
2022/01/30 03:53:05;;;;;;;20.02;4.93;;;5.40;99.90;;;;;;5060380;28;20491;-54
2022/01/30 03:55:30;;;;;;;22.73;5.47;;;5.40;99.90;;;;;;5060266;28;20127;-57
2022/01/30 03:57:56;;;;;;;16.95;5.60;;;5.40;99.90;;;;;;5060800;28;20404;-56
2022/01/30 04:00:23;;;;;;;30.50;6.93;;;5.40;99.90;;;;;;5060814;28;20031;-52
2022/01/30 04:02:48;;;;;;;27.88;6.18;;;5.40;99.90;;;;;;5060017;28;20029;-55
2022/01/30 04:05:14;;;;;;;25.80;5.00;;;5.40;99.90;;;;;;5059553;28;20029;-53
2022/01/30 04:07:40;;;;;;;32.97;7.28;;;5.40;99.90;;;;;;5060622;28;20036;-55
2022/01/30 04:10:07;;;;;;;19.13;5.68;;;5.40;99.90;;;;;;5060969;28;20062;-52
2022/01/30 04:12:33;;;;;;;28.63;6.60;;;5.30;99.90;;;;;;5059955;28;20112;-55
2022/01/30 04:14:59;;;;;;;24.35;6.80;;;5.30;99.90;;;;;;5060927;28;20025;-52
2022/01/30 04:17:25;;;;;;;17.60;4.65;;;5.30;99.90;;;;;;5060389;28;20086;-53
2022/01/30 04:19:51;;;;;;;29.48;5.57;;;5.30;99.90;;;;;;5060307;28;20039;-55
2022/01/30 04:22:16;;;;;;;15.07;5.15;;;5.30;99.90;;;;;;5060456;28;20025;-55
2022/01/30 04:24:42;;;;;;;24.27;6.18;;;5.30;99.90;;;;;;5059563;28;20096;-50
2022/01/30 04:27:08;;;;;;;25.42;6.22;;;5.30;99.90;;;;;;5059532;28;20025;-52
2022/01/30 04:29:34;;;;;;;24.10;5.22;;;5.30;99.90;;;;;;5060595;28;20045;-52
2022/01/30 04:32:02;;;;;;;31.95;6.25;;;5.40;99.90;;;;;;5059309;28;20039;-54
2022/01/30 04:34:29;;;;;;;16.88;5.68;;;5.40;99.90;;;;;;5059840;28;20108;-54
2022/01/30 04:37:01;;;;;;;26.55;5.95;;;5.30;99.90;;;;;;5060245;28;20028;-49
2022/01/30 05:00:59;;;;;;;19.30;4.85;;;5.50;99.90;;;;;;5059033;28;20099;-51
2022/01/30 05:03:40;;;;;;;19.48;4.45;;;5.50;99.90;;;;;;5059100;28;20029;-51
2022/01/30 05:06:16;;;;;;;17.85;5.28;;;5.50;99.90;;;;;;5062140;28;20448;-57
2022/01/30 05:08:42;;;;;;;19.17;4.68;;;5.40;99.90;;;;;;5060702;28;20609;-51
2022/01/30 05:11:09;;;;;;;21.27;4.90;;;5.30;99.90;;;;;;5059364;28;20032;-54
2022/01/30 05:13:39;;;;;;;22.52;5.25;;;5.30;99.90;;;;;;5059415;28;20032;-55
2022/01/30 05:16:05;;;;;;;27.75;6.65;;;5.30;99.90;;;;;;5059184;28;20032;-55
2022/01/30 05:18:31;;;;;;;22.65;5.97;;;5.30;99.90;;;;;;5059208;28;20606;-56
2022/01/30 05:20:57;;;;;;;16.35;5.75;;;5.20;99.90;;;;;;5059126;28;20090;-51
2022/01/30 05:23:23;;;;;;;24.17;5.60;;;5.20;99.90;;;;;;5059425;28;20025;-55
2022/01/30 05:25:50;;;;;;;23.30;6.15;;;5.20;99.90;;;;;;5059043;28;20051;-52
2022/01/30 05:28:18;;;;;;;23.42;6.75;;;5.10;99.90;;;;;;5058505;28;20477;-55
2022/01/30 05:30:44;;;;;;;22.13;6.18;;;5.10;99.90;;;;;;5058492;28;20082;-56
2022/01/30 05:33:12;;;;;;;27.35;5.95;;;5.00;99.90;;;;;;5058634;28;20025;-52
2022/01/30 05:35:38;;;;;;;26.10;5.60;;;5.00;99.90;;;;;;5058826;28;20040;-55
2022/01/30 05:38:04;;;;;;;17.00;4.78;;;5.00;99.90;;;;;;5058988;28;20029;-57
2022/01/30 05:40:31;;;;;;;31.08;6.38;;;5.10;99.90;;;;;;5057243;28;20029;-53
2022/01/30 05:42:57;;;;;;;15.45;4.03;;;5.10;99.90;;;;;;5058409;28;20110;-52
2022/01/30 05:48:06;;;;;;;19.75;4.55;;;5.10;99.90;;;;;;5059658;28;20024;-56
2022/01/30 05:50:33;;;;;;;22.50;5.80;;;5.10;99.90;;;;;;5057537;28;20452;-55
2022/01/30 05:52:58;;;;;;;23.95;6.25;;;5.10;99.90;;;;;;5057413;28;20029;-51
2022/01/30 05:55:24;;;;;;;18.95;5.28;;;5.00;99.90;;;;;;5058589;28;20041;-54
2022/01/30 05:57:49;;;;;;;24.73;5.82;;;5.00;99.90;;;;;;5058913;28;20521;-53
2022/01/30 06:00:15;;;;;;;22.20;5.85;;;5.10;99.90;;;;;;5058060;28;20032;-51
2022/01/30 06:02:42;;;;;;;19.20;4.90;;;5.10;99.90;;;;;;5058261;28;20032;-51
2022/01/30 06:05:09;;;;;;;18.48;5.18;;;5.10;99.90;;;;;;5057833;28;20063;-55
2022/01/30 06:07:37;;;;;;;19.25;5.80;;;5.20;99.90;;;;;;5057933;28;20036;-50
2022/01/30 06:10:04;;;;;;;31.55;6.32;;;5.20;99.90;;;;;;5058606;28;20017;-52
2022/01/30 06:12:29;;;;;;;20.50;5.78;;;5.20;99.90;;;;;;5057159;28;20043;-53
2022/01/30 06:14:55;;;;;;;27.90;5.65;;;5.20;99.90;;;;;;5058173;28;20036;-52
2022/01/30 06:17:21;;;;;;;26.60;5.82;;;5.20;99.90;;;;;;5056889;28;20074;-55
2022/01/30 06:19:47;;;;;;;19.98;5.38;;;5.20;99.90;;;;;;5057651;28;20060;-56
2022/01/30 06:22:13;;;;;;;22.90;6.60;;;5.20;99.90;;;;;;5058251;28;20028;-56
2022/01/30 06:24:39;;;;;;;19.00;4.38;;;5.20;99.90;;;;;;5058442;28;20033;-51
2022/01/30 06:27:04;;;;;;;21.67;5.03;;;5.10;99.90;;;;;;5057977;28;20221;-52
2022/01/30 06:29:30;;;;;;;21.30;4.75;;;5.10;99.90;;;;;;5057515;28;20029;-53
2022/01/30 06:31:55;;;;;;;18.33;4.45;;;5.10;99.90;;;;;;5057881;28;20033;-56
2022/01/30 06:34:22;;;;;;;25.50;4.72;;;5.10;99.90;;;;;;5058297;28;20037;-52
2022/01/30 06:36:48;;;;;;;21.80;5.20;;;5.10;99.90;;;;;;5057735;28;20116;-50
2022/01/30 06:39:13;;;;;;;16.27;4.50;;;5.10;99.90;;;;;;5058746;28;20143;-53
2022/01/30 06:41:39;;;;;;;24.02;5.00;;;5.10;99.90;;;;;;5058322;28;20664;-56
2022/01/30 06:44:06;;;;;;;23.38;5.20;;;5.10;99.90;;;;;;5057839;28;20086;-54
2022/01/30 06:46:32;;;;;;;20.00;4.90;;;5.10;99.90;;;;;;5057595;28;20087;-53
2022/01/30 06:48:58;;;;;;;23.85;4.60;;;5.10;99.90;;;;;;5058060;28;20024;-51
2022/01/30 06:51:23;;;;;;;21.38;4.60;;;5.10;99.90;;;;;;5057519;28;20041;-55
2022/01/30 06:53:49;;;;;;;14.68;4.78;;;5.10;99.90;;;;;;5058043;28;20029;-51
2022/01/30 06:56:14;;;;;;;23.90;5.22;;;5.10;99.90;;;;;;5057683;28;20060;-52
2022/01/30 06:58:40;;;;;;;21.17;4.45;;;5.10;99.90;;;;;;5057409;28;20029;-53
2022/01/30 07:01:05;;;;;;;16.35;4.63;;;5.10;99.90;;;;;;5057803;28;20036;-53
2022/01/30 07:03:31;;;;;;;31.00;6.68;;;5.10;99.90;;;;;;5057214;28;20040;-52
2022/01/30 07:05:57;;;;;;;19.33;5.18;;;5.10;99.90;;;;;;5057383;28;20491;-52
2022/01/30 07:08:22;;;;;;;25.27;5.70;;;5.10;99.90;;;;;;5058327;28;20025;-55
2022/01/30 07:10:48;;;;;;;18.10;4.75;;;5.10;99.90;;;;;;5056588;28;20098;-52
2022/01/30 07:13:13;;;;;;;26.67;5.53;;;5.10;99.90;;;;;;5057900;28;20093;-51
2022/01/30 07:15:41;;;;;;;18.55;5.10;;;5.10;99.90;;;;;;5058284;28;20064;-53
2022/01/30 07:18:07;;;;;;;18.77;5.90;;;5.10;99.90;;;;;;5061569;28;20470;-54
2022/01/30 07:20:33;;;;;;;24.38;6.10;;;5.10;99.90;;;;;;5061124;28;20579;-54
2022/01/30 07:22:59;;;;;;;30.35;6.20;;;5.10;99.90;;;;;;5061077;28;20020;-52
2022/01/30 07:25:24;;;;;;;37.90;7.32;;;5.00;99.90;;;;;;5061428;28;20033;-55
2022/01/30 07:27:50;;;;;;;31.90;7.93;;;5.00;99.90;;;;;;5061565;28;20081;-54
2022/01/30 07:30:15;;;;;;;30.45;6.20;;;5.00;99.90;;;;;;5061433;28;20044;-54
2022/01/30 07:32:41;;;;;;;28.42;6.88;;;5.00;99.90;;;;;;5061471;28;20028;-55
2022/01/30 07:35:07;;;;;;;30.50;7.38;;;5.10;99.90;;;;;;5061460;28;20032;-52
2022/01/30 07:37:34;;;;;;;30.95;7.75;;;5.10;99.90;;;;;;5061493;28;20044;-57
2022/01/30 07:40:02;;;;;;;21.95;6.30;;;5.10;99.90;;;;;;5061150;28;20128;-53
2022/01/30 07:42:27;;;;;;;29.25;5.68;;;5.20;99.90;;;;;;5061166;28;20039;-55
2022/01/30 07:44:54;;;;;;;32.90;8.43;;;5.20;99.90;;;;;;5060753;28;20029;-55
2022/01/30 07:47:23;;;;;;;28.55;7.18;;;5.30;99.90;;;;;;5060863;28;20112;-55
2022/01/30 07:49:51;;;;;;;31.75;7.88;;;5.40;99.90;;;;;;5060958;28;20163;-53
2022/01/30 07:52:21;;;;;;;29.10;6.93;;;5.40;99.90;;;;;;5060705;28;20029;-54
2022/01/30 07:54:47;;;;;;;20.13;6.05;;;5.40;99.90;;;;;;5060444;28;20048;-53
2022/01/30 07:57:12;;;;;;;32.13;8.30;;;5.40;99.90;;;;;;5060940;28;20515;-55
2022/01/30 07:59:38;;;;;;;30.33;6.45;;;5.50;99.90;;;;;;5060500;28;20108;-53
2022/01/30 08:02:04;;;;;;;35.22;7.63;;;5.50;99.90;;;;;;5059136;28;20551;-55
2022/01/30 08:04:29;;;;;;;33.35;7.70;;;5.50;99.90;;;;;;5059726;28;20033;-55
2022/01/30 08:06:55;;;;;;;34.17;7.22;;;5.50;99.90;;;;;;5059441;28;20100;-54
2022/01/30 08:09:21;;;;;;;25.98;6.82;;;5.50;99.90;;;;;;5060393;28;20508;-50
2022/01/30 08:11:47;;;;;;;27.00;7.35;;;5.50;99.90;;;;;;5060971;28;20499;-52
2022/01/30 08:14:12;;;;;;;28.50;6.70;;;5.50;99.90;;;;;;5059793;28;20033;-54
2022/01/30 08:16:39;;;;;;;36.17;7.85;;;5.60;99.90;;;;;;5060831;28;20051;-50
2022/01/30 08:19:05;;;;;;;30.75;6.53;;;5.60;99.90;;;;;;5060201;28;20032;-55
2022/01/30 08:21:31;;;;;;;32.20;7.68;;;5.60;99.90;;;;;;5060689;28;20029;-55
2022/01/30 08:23:56;;;;;;;31.13;8.23;;;5.60;99.90;;;;;;5059408;28;20472;-56
2022/01/30 08:26:22;;;;;;;31.08;7.00;;;5.60;99.90;;;;;;5060777;28;20111;-53
2022/01/30 08:28:47;;;;;;;34.90;6.93;;;5.60;99.90;;;;;;5057930;28;20082;-50
2022/01/30 08:31:13;;;;;;;31.42;7.82;;;5.60;99.90;;;;;;5060523;28;20039;-52
2022/01/30 08:33:39;;;;;;;24.73;6.93;;;5.60;99.90;;;;;;5059515;28;20040;-57
2022/01/30 08:36:05;;;;;;;31.50;7.00;;;5.60;99.90;;;;;;5060185;28;20539;-55
2022/01/30 08:38:30;;;;;;;39.47;8.02;;;5.60;99.90;;;;;;5059984;28;20033;-55
2022/01/30 08:40:56;;;;;;;33.92;7.03;;;5.60;99.90;;;;;;5059530;28;20036;-53
2022/01/30 08:43:22;;;;;;;30.95;6.78;;;5.60;99.90;;;;;;5059608;28;20037;-53
2022/01/30 08:45:52;;;;;;;23.98;6.68;;;5.60;99.90;;;;;;5059473;28;20029;-55
2022/01/30 08:48:19;;;;;;;34.95;7.45;;;5.60;99.90;;;;;;5058785;28;20108;-56
2022/01/30 08:50:45;;;;;;;29.15;6.47;;;5.70;99.90;;;;;;5058524;28;20051;-53
2022/01/30 08:53:11;;;;;;;27.23;7.85;;;5.70;99.90;;;;;;5059083;28;20116;-51
2022/01/30 08:55:37;;;;;;;24.08;5.75;;;5.70;99.90;;;;;;5059719;28;20127;-56
2022/01/30 08:58:09;;;;;;;25.30;6.20;;;5.60;99.90;;;;;;5059500;28;20078;-50
2022/01/30 09:00:40;;;;;;;29.85;7.03;;;5.70;99.90;;;;;;5058640;28;20040;-53
2022/01/30 09:03:07;;;;;;;22.45;6.00;;;5.70;99.90;;;;;;5058864;28;20070;-54
2022/01/30 09:05:34;;;;;;;26.60;7.38;;;5.70;99.90;;;;;;5059723;28;20404;-55
2022/01/30 09:08:04;;;;;;;28.13;6.75;;;5.70;99.90;;;;;;5060147;28;20039;-54
2022/01/30 09:10:34;;;;;;;28.65;7.40;;;5.60;99.90;;;;;;5059343;28;20021;-54
2022/01/30 09:13:00;;;;;;;24.65;6.40;;;5.70;99.90;;;;;;5059171;28;20051;-52
2022/01/30 09:15:25;;;;;;;18.80;4.75;;;5.60;99.90;;;;;;5059090;28;20053;-53
2022/01/30 09:17:56;;;;;;;36.90;7.88;;;5.70;99.90;;;;;;5060091;28;20504;-51
2022/01/30 09:20:22;;;;;;;31.95;6.78;;;5.70;99.90;;;;;;5059029;28;20028;-54
2022/01/30 09:22:49;;;;;;;29.58;6.00;;;5.70;99.90;;;;;;5059198;28;20400;-53
2022/01/30 09:25:15;;;;;;;27.90;7.80;;;5.80;99.90;;;;;;5059407;28;20017;-56
2022/01/30 09:27:40;;;;;;;28.73;6.75;;;5.70;99.90;;;;;;5059306;28;20549;-55
2022/01/30 09:30:08;;;;;;;24.52;5.80;;;5.80;99.90;;;;;;5059253;28;20028;-51
2022/01/30 09:32:34;;;;;;;26.05;7.13;;;5.80;99.90;;;;;;5057519;28;20622;-55
2022/01/30 09:35:00;;;;;;;26.40;6.35;;;5.80;99.90;;;;;;5059410;28;20103;-55
2022/01/30 09:37:25;;;;;;;28.65;7.05;;;5.80;99.90;;;;;;5057805;28;20167;-55
2022/01/30 09:39:51;;;;;;;39.55;6.85;;;5.90;99.90;;;;;;5058292;28;20064;-56
2022/01/30 09:42:17;;;;;;;29.20;6.13;;;5.90;99.90;;;;;;5057459;28;20024;-54
2022/01/30 09:44:44;;;;;;;21.02;6.35;;;5.90;99.90;;;;;;5059389;28;20377;-56
2022/01/30 09:47:11;;;;;;;36.75;7.28;;;6.00;99.90;;;;;;5058303;28;20021;-52
2022/01/30 09:49:39;;;;;;;37.83;7.70;;;6.00;99.90;;;;;;5058589;28;20078;-55
2022/01/30 09:52:07;;;;;;;22.77;6.43;;;6.00;99.90;;;;;;5059340;28;20084;-52
2022/01/30 09:54:33;;;;;;;26.83;5.53;;;6.00;99.90;;;;;;5058832;28;20043;-54
2022/01/30 09:56:59;;;;;;;30.42;6.97;;;6.00;99.90;;;;;;5057813;28;20078;-55
2022/01/30 09:59:25;;;;;;;42.60;9.35;;;6.00;99.90;;;;;;5058292;28;20500;-55
2022/01/30 10:01:51;;;;;;;27.42;6.55;;;6.00;99.90;;;;;;5058602;28;20022;-56
2022/01/30 10:04:16;;;;;;;24.58;6.03;;;6.00;99.90;;;;;;5058146;28;20947;-52
2022/01/30 10:07:03;;;;;;;29.77;7.07;;;6.00;99.90;;;;;;5058629;28;20039;-54
2022/01/30 10:09:33;;;;;;;33.08;7.10;;;6.00;99.90;;;;;;5058447;28;20447;-55
2022/01/30 10:12:28;;;;;;;25.52;6.63;;;6.00;99.90;;;;;;5057647;28;20411;-55
2022/01/30 10:15:15;;;;;;;23.13;6.20;;;6.00;99.90;;;;;;5057673;28;20016;-54
2022/01/30 10:17:48;;;;;;;21.88;6.43;;;6.00;99.90;;;;;;5058255;28;20625;-54
2022/01/30 10:20:19;;;;;;;30.13;7.25;;;6.00;99.90;;;;;;5058354;28;20025;-53
2022/01/30 10:23:04;;;;;;;26.95;6.95;;;6.00;99.90;;;;;;5058000;28;20033;-54
2022/01/30 10:25:31;;;;;;;27.58;6.82;;;6.00;99.90;;;;;;5057990;28;20382;-53
2022/01/30 10:28:31;;;;;;;30.55;7.20;;;6.10;99.90;;;;;;5058599;28;20074;-54
2022/01/30 10:31:00;;;;;;;22.52;5.85;;;6.00;99.90;;;;;;5057436;28;20028;-55
2022/01/30 10:34:00;;;;;;;26.73;5.50;;;6.10;99.90;;;;;;5056678;28;20033;-50
2022/01/30 10:36:30;;;;;;;29.17;6.05;;;6.10;99.90;;;;;;5015811;28;20515;-52
2022/01/30 10:39:03;;;;;;;28.95;6.53;;;6.10;99.90;;;;;;5057246;28;20062;-49
2022/01/30 10:41:37;;;;;;;20.80;6.07;;;6.10;99.90;;;;;;5058114;28;20018;-51
2022/01/30 10:44:06;;;;;;;25.02;6.45;;;6.10;99.90;;;;;;5058045;28;20549;-51
2022/01/30 10:46:46;;;;;;;25.17;5.78;;;6.10;99.90;;;;;;5058121;28;20516;-53
2022/01/30 10:49:17;;;;;;;27.20;7.55;;;6.20;99.90;;;;;;5058310;28;20412;-51
2022/01/30 10:51:56;;;;;;;22.77;5.05;;;6.20;99.90;;;;;;5060859;28;20067;-52
2022/01/30 10:54:26;;;;;;;21.05;5.72;;;6.30;99.90;;;;;;5061568;28;20084;-52
2022/01/30 10:57:08;;;;;;;30.00;6.68;;;6.30;99.90;;;;;;5062356;28;20021;-51
2022/01/30 10:59:35;;;;;;;30.20;6.20;;;6.30;99.90;;;;;;5061770;28;20033;-52
2022/01/30 11:02:14;;;;;;;22.15;6.68;;;6.30;99.90;;;;;;5061417;28;20023;-51
2022/01/30 11:04:41;;;;;;;33.63;6.40;;;6.30;99.90;;;;;;5061993;28;20407;-55
2022/01/30 11:07:07;;;;;;;33.72;7.40;;;6.30;99.90;;;;;;5061292;28;20028;-51
2022/01/30 11:09:40;;;;;;;32.28;8.32;;;6.20;99.90;;;;;;5062125;28;20027;-53
2022/01/30 11:12:14;;;;;;;37.85;7.45;;;6.20;99.90;;;;;;5061936;28;20033;-54
2022/01/30 11:17:15;;;;;;;24.23;5.25;;;6.30;99.90;;;;;;5062406;28;20021;-50
2022/01/30 11:19:48;;;;;;;27.58;6.35;;;6.30;99.90;;;;;;5061050;28;20020;-55
2022/01/30 11:22:16;;;;;;;30.73;6.63;;;6.30;99.90;;;;;;5061710;28;20021;-53
2022/01/30 11:24:47;;;;;;;24.88;7.88;;;6.30;99.90;;;;;;5061960;28;20025;-53
2022/01/30 11:27:15;;;;;;;31.40;7.03;;;6.30;99.90;;;;;;5061518;28;20013;-49
2022/01/30 11:29:41;;;;;;;25.35;7.00;;;6.40;99.90;;;;;;5059566;28;20070;-50
2022/01/30 11:32:07;;;;;;;20.23;5.80;;;6.40;99.90;;;;;;5060786;28;20581;-51
2022/01/30 11:34:36;;;;;;;24.67;6.28;;;6.40;99.90;;;;;;5059969;28;20032;-54
2022/01/30 11:37:02;;;;;;;15.05;4.97;;;6.40;99.90;;;;;;5061080;28;20033;-54
2022/01/30 11:39:28;;;;;;;30.05;6.57;;;6.40;99.90;;;;;;5060795;28;20112;-53
2022/01/30 11:42:14;;;;;;;27.15;6.13;;;6.40;99.90;;;;;;5059645;28;20520;-55
2022/01/30 11:44:43;;;;;;;29.00;5.15;;;6.40;99.90;;;;;;5061442;28;20029;-52
2022/01/30 11:47:09;;;;;;;27.90;6.60;;;6.40;99.90;;;;;;5060057;28;20660;-54
2022/01/30 11:49:52;;;;;;;20.88;5.05;;;6.30;99.90;;;;;;5061315;28;20044;-57
2022/01/30 11:52:19;;;;;;;24.50;5.80;;;6.40;99.90;;;;;;5063773;28;20021;-56
2022/01/30 11:54:51;;;;;;;22.17;5.15;;;6.40;99.90;;;;;;5060596;28;20478;-50
2022/01/30 11:57:22;;;;;;;21.67;5.90;;;6.50;99.90;;;;;;5060678;28;20021;-53
2022/01/30 11:59:49;;;;;;;22.35;5.25;;;6.40;99.90;;;;;;5061146;28;20021;-53
2022/01/30 12:02:25;;;;;;;27.65;6.40;;;6.50;99.90;;;;;;5059910;28;20025;-54
2022/01/30 12:05:01;;;;;;;;;;;6.40;99.90;;;;;;5062451;28;20417;-54
2022/01/30 12:07:35;;;;;;;28.50;5.70;;;6.40;99.90;;;;;;5061371;28;19959;-55
2022/01/30 12:10:16;;;;;;;18.80;4.72;;;6.30;99.90;;;;;;5062384;28;20031;-53
2022/01/30 12:12:56;;;;;;;17.67;4.55;;;6.30;99.90;;;;;;5058141;28;20451;-52
2022/01/30 12:15:44;;;;;;;28.98;5.65;;;6.30;99.90;;;;;;5060794;28;20029;-54
2022/01/30 12:18:14;;;;;;;19.25;4.45;;;6.40;99.90;;;;;;5063794;28;20420;-55
2022/01/30 12:21:00;;;;;;;20.25;4.75;;;6.40;99.90;;;;;;5063866;28;20032;-53
2022/01/30 12:23:34;;;;;;;21.70;5.50;;;6.40;99.90;;;;;;5064042;28;20440;-58
2022/01/30 12:26:05;;;;;;;11.95;4.97;;;6.50;99.90;;;;;;5064803;28;20151;-55
2022/01/30 12:28:44;;;;;;;25.77;5.47;;;6.40;99.90;;;;;;5064689;28;20384;-53
2022/01/30 12:31:36;;;;;;;21.73;6.35;;;6.40;99.90;;;;;;5059705;28;20060;-53
2022/01/30 12:34:11;;;;;;;24.48;5.78;;;6.40;99.90;;;;;;5060457;28;20025;-51
2022/01/30 12:36:57;;;;;;;20.55;5.13;;;6.40;99.90;;;;;;5060292;28;20035;-54
2022/01/30 12:39:23;;;;;;;22.73;5.43;;;6.40;99.90;;;;;;5060358;28;20041;-52
2022/01/30 12:41:50;;;;;;;30.15;6.15;;;6.40;99.90;;;;;;5060530;28;20032;-55
2022/01/30 12:44:21;;;;;;;26.73;5.60;;;6.40;99.90;;;;;;5059703;28;20016;-54
2022/01/30 12:46:48;;;;;;;22.08;5.55;;;6.30;99.90;;;;;;5059644;28;20104;-55
2022/01/30 12:49:19;;;;;;;24.58;4.43;;;6.30;99.90;;;;;;5059967;28;20025;-54
2022/01/30 12:51:51;;;;;;;17.75;4.90;;;6.20;99.90;;;;;;5059824;28;20036;-51
2022/01/30 12:54:22;;;;;;;20.65;4.75;;;6.20;99.90;;;;;;5060194;28;20028;-53
2022/01/30 12:56:50;;;;;;;20.02;4.97;;;6.20;99.90;;;;;;5059949;28;20532;-54
2022/01/30 12:59:17;;;;;;;20.92;5.03;;;6.20;99.90;;;;;;5060094;28;20051;-53
2022/01/30 13:01:45;;;;;;;15.00;3.95;;;6.20;99.90;;;;;;5059763;28;20079;-54
2022/01/30 13:04:17;;;;;;;24.58;4.88;;;6.20;99.90;;;;;;5059455;28;20107;-52
2022/01/30 13:06:48;;;;;;;19.20;4.63;;;6.20;99.90;;;;;;5060242;28;20026;-56
2022/01/30 13:09:19;;;;;;;11.82;3.10;;;6.20;99.90;;;;;;5060182;28;20016;-52
2022/01/30 13:11:44;;;;;;;19.23;4.50;;;6.20;99.90;;;;;;5059262;28;20028;-51
2022/01/30 13:14:10;;;;;;;12.90;4.68;;;6.20;99.90;;;;;;5056824;28;20033;-51
2022/01/30 13:16:50;;;;;;;12.82;4.63;;;6.20;99.90;;;;;;5073868;28;20062;-54
2022/01/30 13:19:34;;;;;;;18.35;4.93;;;6.20;99.90;;;;;;5059073;28;20024;-50
2022/01/30 13:22:01;;;;;;;20.65;6.03;;;6.20;99.90;;;;;;5059351;28;20032;-53
2022/01/30 13:24:27;;;;;;;16.30;5.22;;;6.10;99.90;;;;;;5057444;28;20054;-54
2022/01/30 13:27:06;;;;;;;27.33;4.85;;;6.20;99.90;;;;;;5059659;28;20025;-51
2022/01/30 13:29:35;;;;;;;20.45;4.88;;;6.10;99.90;;;;;;5058813;28;20415;-56
2022/01/30 13:32:11;;;;;;;19.08;4.90;;;6.10;99.90;;;;;;5058578;28;20025;-55
2022/01/30 13:34:37;;;;;;;;;;;6.00;99.90;;;;;;5059385;28;20115;-52
2022/01/30 13:37:05;;;;;;;21.58;4.97;;;6.00;99.90;;;;;;5059125;28;19908;-52
2022/01/30 13:39:35;;;;;;;22.48;4.50;;;6.00;99.90;;;;;;5058755;28;20517;-51
2022/01/30 13:47:58;;;;;;;17.38;4.15;;;5.90;99.90;;;;;;5047506;28;20029;-55
2022/01/30 13:50:26;;;;;;;14.30;3.28;;;5.90;99.90;;;;;;5057461;28;20496;-55
2022/01/30 13:53:01;;;;;;;16.88;4.35;;;5.90;99.90;;;;;;5058590;28;20033;-52
2022/01/30 13:55:26;;;;;;;16.65;4.22;;;5.90;99.90;;;;;;5058591;28;20032;-55
2022/01/30 13:57:58;;;;;;;14.35;4.40;;;5.90;99.90;;;;;;5056821;28;20016;-53